Terminal Aerodrome Forecast
Issued by NWS Portland, ME

Home | Current Version | Previous Version | Text Only | Print | Product List | Glossary On
Versions: 1 2 3 4 5 6 7 8 9 10 11 12 13 14 15 16 17 18 19 20 21
056
FTUS41 KGYX 010520
TAFPWM
TAF
KPWM 010520Z 0106/0206 17005KT P6SM OVC050
     FM010900 13006KT P6SM BKN015 OVC025
     FM011600 10008KT 2SM -DZ BR BKN004 OVC007
     FM020200 06006KT 1SM -SHRA BR OVC003=

USA.gov is the U.S. government's official web portal to all federal, state and local government web resources and services.